sensor_id;sensor_type;location;lat;lon;timestamp;pressure;altitude;pressure_sealevel;temperature;humidity
64354;BME280;50681;53.334;-6.536;2024-03-23T00:53:11;100996.00;;;8.09;100.00
64354;BME280;50681;53.334;-6.536;2024-03-23T00:55:36;100994.38;;;8.03;100.00
64354;BME280;50681;53.334;-6.536;2024-03-23T00:58:02;100991.38;;;8.00;100.00
64354;BME280;50681;53.334;-6.536;2024-03-23T01:00:27;100994.09;;;8.05;100.00
64354;BME280;50681;53.334;-6.536;2024-03-23T01:02:53;100985.97;;;7.89;100.00
64354;BME280;50681;53.334;-6.536;2024-03-23T01:05:18;100978.06;;;8.26;100.00
64354;BME280;50681;53.334;-6.536;2024-03-23T01:07:43;100987.41;;;8.07;100.00
64354;BME280;50681;53.334;-6.536;2024-03-23T01:10:09;100979.38;;;8.18;100.00
64354;BME280;50681;53.334;-6.536;2024-03-23T01:12:34;100982.56;;;8.09;100.00
64354;BME280;50681;53.334;-6.536;2024-03-23T01:15:00;100969.50;;;7.80;100.00
64354;BME280;50681;53.334;-6.536;2024-03-23T01:17:25;100974.97;;;7.96;100.00
64354;BME280;50681;53.334;-6.536;2024-03-23T01:19:50;100971.88;;;8.25;100.00
64354;BME280;50681;53.334;-6.536;2024-03-23T01:22:16;100970.00;;;8.31;100.00
64354;BME280;50681;53.334;-6.536;2024-03-23T01:24:41;100961.09;;;8.20;100.00
64354;BME280;50681;53.334;-6.536;2024-03-23T01:27:07;100957.34;;;8.26;100.00
64354;BME280;50681;53.334;-6.536;2024-03-23T01:29:42;100955.88;;;8.66;100.00
64354;BME280;50681;53.334;-6.536;2024-03-23T01:32:07;100957.91;;;8.28;100.00
64354;BME280;50681;53.334;-6.536;2024-03-23T01:34:33;100949.41;;;8.57;100.00
64354;BME280;50681;53.334;-6.536;2024-03-23T01:36:58;100945.09;;;8.56;100.00
64354;BME280;50681;53.334;-6.536;2024-03-23T01:39:24;100935.31;;;8.29;100.00
64354;BME280;50681;53.334;-6.536;2024-03-23T01:41:50;100936.41;;;8.44;100.00
64354;BME280;50681;53.334;-6.536;2024-03-23T01:44:15;100935.41;;;8.60;100.00
64354;BME280;50681;53.334;-6.536;2024-03-23T01:46:41;100937.38;;;8.06;100.00
64354;BME280;50681;53.334;-6.536;2024-03-23T01:49:07;100934.59;;;7.86;100.00
64354;BME280;50681;53.334;-6.536;2024-03-23T01:51:34;100931.53;;;8.25;100.00
64354;BME280;50681;53.334;-6.536;2024-03-23T01:54:02;100935.25;;;8.14;100.00
64354;BME280;50681;53.334;-6.536;2024-03-23T01:56:34;100923.19;;;8.37;100.00
64354;BME280;50681;53.334;-6.536;2024-03-23T01:59:03;100926.84;;;8.05;100.00
64354;BME280;50681;53.334;-6.536;2024-03-23T02:01:29;100920.81;;;8.41;100.00
64354;BME280;50681;53.334;-6.536;2024-03-23T02:03:55;100917.28;;;8.35;100.00
64354;BME280;50681;53.334;-6.536;2024-03-23T02:06:21;100938.00;;;8.34;100.00
64354;BME280;50681;53.334;-6.536;2024-03-23T02:08:47;100944.84;;;8.73;100.00
64354;BME280;50681;53.334;-6.536;2024-03-23T02:11:13;100940.97;;;8.43;100.00
64354;BME280;50681;53.334;-6.536;2024-03-23T02:13:39;100938.81;;;8.40;100.00
64354;BME280;50681;53.334;-6.536;2024-03-23T02:16:05;100940.69;;;8.29;100.00
64354;BME280;50681;53.334;-6.536;2024-03-23T02:18:32;100938.19;;;8.17;100.00
64354;BME280;50681;53.334;-6.536;2024-03-23T02:20:57;100942.88;;;8.48;100.00
64354;BME280;50681;53.334;-6.536;2024-03-23T02:23:23;100930.44;;;8.26;100.00
64354;BME280;50681;53.334;-6.536;2024-03-23T02:25:49;100932.72;;;8.55;100.00
64354;BME280;50681;53.334;-6.536;2024-03-23T02:28:14;100921.44;;;8.79;100.00
64354;BME280;50681;53.334;-6.536;2024-03-23T02:30:40;100917.31;;;8.45;100.00
64354;BME280;50681;53.334;-6.536;2024-03-23T02:33:05;100901.69;;;8.42;100.00
64354;BME280;50681;53.334;-6.536;2024-03-23T02:35:31;100916.50;;;8.45;100.00
64354;BME280;50681;53.334;-6.536;2024-03-23T02:37:56;100912.81;;;8.56;100.00
64354;BME280;50681;53.334;-6.536;2024-03-23T02:40:23;100902.59;;;8.63;100.00
64354;BME280;50681;53.334;-6.536;2024-03-23T02:42:48;100908.19;;;8.51;100.00
64354;BME280;50681;53.334;-6.536;2024-03-23T02:45:14;100899.84;;;8.48;100.00
64354;BME280;50681;53.334;-6.536;2024-03-23T02:47:39;100898.22;;;8.42;100.00
64354;BME280;50681;53.334;-6.536;2024-03-23T02:50:05;100891.25;;;8.51;100.00
64354;BME280;50681;53.334;-6.536;2024-03-23T02:52:31;100886.97;;;8.60;100.00
64354;BME280;50681;53.334;-6.536;2024-03-23T02:54:56;100886.63;;;8.46;100.00
64354;BME280;50681;53.334;-6.536;2024-03-23T02:57:22;100882.13;;;8.99;100.00
64354;BME280;50681;53.334;-6.536;2024-03-23T02:59:47;100895.59;;;8.99;100.00
64354;BME280;50681;53.334;-6.536;2024-03-23T03:02:15;100887.53;;;8.99;100.00
64354;BME280;50681;53.334;-6.536;2024-03-23T03:04:41;100885.53;;;8.42;100.00
64354;BME280;50681;53.334;-6.536;2024-03-23T03:07:07;100868.66;;;8.73;100.00
64354;BME280;50681;53.334;-6.536;2024-03-23T03:09:32;100872.91;;;8.48;100.00
64354;BME280;50681;53.334;-6.536;2024-03-23T03:11:58;100879.63;;;8.45;100.00
64354;BME280;50681;53.334;-6.536;2024-03-23T03:14:23;100869.22;;;8.80;100.00
64354;BME280;50681;53.334;-6.536;2024-03-23T03:16:49;100869.19;;;8.59;100.00
64354;BME280;50681;53.334;-6.536;2024-03-23T03:19:14;100879.94;;;8.49;100.00
64354;BME280;50681;53.334;-6.536;2024-03-23T03:21:41;100873.41;;;8.24;100.00
64354;BME280;50681;53.334;-6.536;2024-03-23T03:24:07;100871.91;;;8.64;100.00
64354;BME280;50681;53.334;-6.536;2024-03-23T03:26:32;100868.84;;;8.35;100.00
64354;BME280;50681;53.334;-6.536;2024-03-23T03:28:58;100868.78;;;8.09;100.00
64354;BME280;50681;53.334;-6.536;2024-03-23T03:31:23;100867.59;;;9.05;100.00
64354;BME280;50681;53.334;-6.536;2024-03-23T03:33:49;100854.09;;;9.31;100.00
64354;BME280;50681;53.334;-6.536;2024-03-23T03:36:16;100853.81;;;9.22;100.00
64354;BME280;50681;53.334;-6.536;2024-03-23T03:38:41;100851.03;;;9.58;100.00
64354;BME280;50681;53.334;-6.536;2024-03-23T03:41:07;100853.56;;;9.29;100.00
64354;BME280;50681;53.334;-6.536;2024-03-23T03:43:32;100851.34;;;9.46;100.00
64354;BME280;50681;53.334;-6.536;2024-03-23T03:45:59;100833.44;;;9.81;100.00
64354;BME280;50681;53.334;-6.536;2024-03-23T03:48:25;100826.63;;;9.13;100.00
64354;BME280;50681;53.334;-6.536;2024-03-23T03:50:52;100826.88;;;9.22;100.00
64354;BME280;50681;53.334;-6.536;2024-03-23T03:53:17;100823.44;;;8.95;100.00
64354;BME280;50681;53.334;-6.536;2024-03-23T03:55:43;100828.81;;;8.90;100.00
64354;BME280;50681;53.334;-6.536;2024-03-23T03:58:08;100818.03;;;8.90;100.00
64354;BME280;50681;53.334;-6.536;2024-03-23T04:00:34;100815.88;;;8.41;100.00
64354;BME280;50681;53.334;-6.536;2024-03-23T04:02:59;100816.44;;;8.63;100.00
64354;BME280;50681;53.334;-6.536;2024-03-23T04:05:24;100816.97;;;8.96;100.00
64354;BME280;50681;53.334;-6.536;2024-03-23T04:07:50;100812.38;;;8.71;100.00
64354;BME280;50681;53.334;-6.536;2024-03-23T04:10:15;100800.00;;;8.80;100.00
64354;BME280;50681;53.334;-6.536;2024-03-23T04:12:43;100806.22;;;8.50;100.00
64354;BME280;50681;53.334;-6.536;2024-03-23T04:15:09;100806.19;;;8.39;100.00
64354;BME280;50681;53.334;-6.536;2024-03-23T04:17:34;100800.81;;;8.76;100.00
64354;BME280;50681;53.334;-6.536;2024-03-23T04:20:01;100788.16;;;8.56;100.00
64354;BME280;50681;53.334;-6.536;2024-03-23T04:22:27;100784.84;;;9.16;100.00
64354;BME280;50681;53.334;-6.536;2024-03-23T04:24:56;100776.22;;;9.24;100.00
64354;BME280;50681;53.334;-6.536;2024-03-23T04:27:23;100788.34;;;9.32;100.00
64354;BME280;50681;53.334;-6.536;2024-03-23T04:29:49;100798.88;;;9.12;100.00
64354;BME280;50681;53.334;-6.536;2024-03-23T04:32:15;100794.81;;;9.25;100.00
64354;BME280;50681;53.334;-6.536;2024-03-23T04:34:41;100804.84;;;8.83;100.00
64354;BME280;50681;53.334;-6.536;2024-03-23T04:37:06;100789.13;;;9.32;100.00
64354;BME280;50681;53.334;-6.536;2024-03-23T04:39:33;100788.91;;;9.18;100.00
64354;BME280;50681;53.334;-6.536;2024-03-23T04:41:59;100777.63;;;9.06;100.00
64354;BME280;50681;53.334;-6.536;2024-03-23T04:44:24;100776.72;;;9.31;100.00
64354;BME280;50681;53.334;-6.536;2024-03-23T04:46:50;100760.94;;;8.93;100.00
64354;BME280;50681;53.334;-6.536;2024-03-23T04:49:15;100756.91;;;8.86;100.00
64354;BME280;50681;53.334;-6.536;2024-03-23T04:51:41;100756.66;;;8.92;100.00
64354;BME280;50681;53.334;-6.536;2024-03-23T04:54:14;100751.75;;;9.15;100.00
64354;BME280;50681;53.334;-6.536;2024-03-23T04:56:39;100736.72;;;8.93;100.00
64354;BME280;50681;53.334;-6.536;2024-03-23T04:59:05;100746.16;;;8.75;100.00
64354;BME280;50681;53.334;-6.536;2024-03-23T05:01:31;100745.91;;;8.77;100.00
64354;BME280;50681;53.334;-6.536;2024-03-23T05:03:57;100749.69;;;8.65;100.00
64354;BME280;50681;53.334;-6.536;2024-03-23T05:06:26;100736.16;;;9.02;100.00
64354;BME280;50681;53.334;-6.536;2024-03-23T05:08:51;100726.53;;;8.75;100.00
64354;BME280;50681;53.334;-6.536;2024-03-23T05:11:17;100722.03;;;9.31;100.00
64354;BME280;50681;53.334;-6.536;2024-03-23T05:13:43;100709.69;;;9.24;100.00
64354;BME280;50681;53.334;-6.536;2024-03-23T05:16:09;100711.59;;;9.14;100.00
64354;BME280;50681;53.334;-6.536;2024-03-23T05:18:35;100711.38;;;9.00;100.00
64354;BME280;50681;53.334;-6.536;2024-03-23T05:21:01;100710.53;;;9.09;100.00
64354;BME280;50681;53.334;-6.536;2024-03-23T05:23:27;100723.84;;;8.64;100.00
64354;BME280;50681;53.334;-6.536;2024-03-23T05:25:53;100732.47;;;8.51;100.00
64354;BME280;50681;53.334;-6.536;2024-03-23T05:28:18;100718.97;;;8.87;100.00
64354;BME280;50681;53.334;-6.536;2024-03-23T05:30:50;100720.66;;;9.33;100.00
64354;BME280;50681;53.334;-6.536;2024-03-23T05:33:15;100716.66;;;9.31;100.00
64354;BME280;50681;53.334;-6.536;2024-03-23T05:35:41;100720.25;;;8.95;100.00
64354;BME280;50681;53.334;-6.536;2024-03-23T05:38:06;100709.19;;;9.12;100.00
64354;BME280;50681;53.334;-6.536;2024-03-23T05:40:31;100712.47;;;8.93;100.00
64354;BME280;50681;53.334;-6.536;2024-03-23T05:42:57;100699.94;;;9.34;100.00
64354;BME280;50681;53.334;-6.536;2024-03-23T05:45:23;100702.72;;;9.13;100.00
64354;BME280;50681;53.334;-6.536;2024-03-23T05:47:48;100695.56;;;9.43;100.00
64354;BME280;50681;53.334;-6.536;2024-03-23T05:50:14;100705.44;;;9.03;100.00
64354;BME280;50681;53.334;-6.536;2024-03-23T05:52:39;100693.56;;;9.14;100.00
64354;BME280;50681;53.334;-6.536;2024-03-23T05:55:06;100684.06;;;9.27;100.00
64354;BME280;50681;53.334;-6.536;2024-03-23T05:57:31;100687.50;;;9.43;100.00
64354;BME280;50681;53.334;-6.536;2024-03-23T05:59:57;100697.84;;;9.15;100.00
64354;BME280;50681;53.334;-6.536;2024-03-23T06:02:23;100695.56;;;9.43;100.00
64354;BME280;50681;53.334;-6.536;2024-03-23T06:04:49;100699.00;;;9.54;100.00
64354;BME280;50681;53.334;-6.536;2024-03-23T06:07:14;100689.81;;;9.60;100.00
64354;BME280;50681;53.334;-6.536;2024-03-23T06:09:43;100683.06;;;9.63;100.00
64354;BME280;50681;53.334;-6.536;2024-03-23T06:12:08;100692.00;;;9.53;100.00
64354;BME280;50681;53.334;-6.536;2024-03-23T06:14:34;100691.22;;;9.92;100.00
64354;BME280;50681;53.334;-6.536;2024-03-23T06:17:00;100681.59;;;9.81;100.00
64354;BME280;50681;53.334;-6.536;2024-03-23T06:19:27;100689.56;;;9.96;100.00
64354;BME280;50681;53.334;-6.536;2024-03-23T06:21:53;100675.75;;;9.68;100.00
64354;BME280;50681;53.334;-6.536;2024-03-23T06:24:21;100687.56;;;10.12;100.00
64354;BME280;50681;53.334;-6.536;2024-03-23T06:26:46;100685.69;;;9.73;100.00
64354;BME280;50681;53.334;-6.536;2024-03-23T06:29:12;100683.38;;;9.96;100.00
64354;BME280;50681;53.334;-6.536;2024-03-23T06:31:37;100678.44;;;9.68;100.00
64354;BME280;50681;53.334;-6.536;2024-03-23T06:34:02;100674.63;;;9.30;100.00
64354;BME280;50681;53.334;-6.536;2024-03-23T06:36:28;100674.16;;;9.12;100.00
64354;BME280;50681;53.334;-6.536;2024-03-23T06:38:55;100675.44;;;9.25;100.00
64354;BME280;50681;53.334;-6.536;2024-03-23T06:41:21;100677.38;;;9.14;100.00
64354;BME280;50681;53.334;-6.536;2024-03-23T06:43:47;100671.56;;;8.91;100.00
64354;BME280;50681;53.334;-6.536;2024-03-23T06:46:15;100683.88;;;9.13;100.00
64354;BME280;50681;53.334;-6.536;2024-03-23T06:48:41;100684.97;;;9.07;100.00
64354;BME280;50681;53.334;-6.536;2024-03-23T06:51:06;100681.59;;;9.36;100.00
64354;BME280;50681;53.334;-6.536;2024-03-23T06:53:32;100696.06;;;8.85;100.00
64354;BME280;50681;53.334;-6.536;2024-03-23T06:55:57;100680.31;;;9.18;100.00
64354;BME280;50681;53.334;-6.536;2024-03-23T06:58:24;100667.25;;;9.46;100.00
64354;BME280;50681;53.334;-6.536;2024-03-23T07:00:50;100674.50;;;8.95;100.00
64354;BME280;50681;53.334;-6.536;2024-03-23T07:03:18;100668.78;;;9.12;100.00
64354;BME280;50681;53.334;-6.536;2024-03-23T07:05:44;100665.66;;;8.84;100.00
64354;BME280;50681;53.334;-6.536;2024-03-23T07:08:11;100662.16;;;8.78;100.00
64354;BME280;50681;53.334;-6.536;2024-03-23T07:10:39;100669.78;;;9.26;100.00
64354;BME280;50681;53.334;-6.536;2024-03-23T07:13:05;100663.44;;;9.52;100.00
64354;BME280;50681;53.334;-6.536;2024-03-23T07:15:30;100660.53;;;8.82;100.00
64354;BME280;50681;53.334;-6.536;2024-03-23T07:17:55;100662.88;;;9.05;100.00
64354;BME280;50681;53.334;-6.536;2024-03-23T07:20:21;100661.69;;;9.32;100.00
64354;BME280;50681;53.334;-6.536;2024-03-23T07:22:46;100642.41;;;9.94;100.00
64354;BME280;50681;53.334;-6.536;2024-03-23T07:25:12;100646.97;;;9.59;100.00
64354;BME280;50681;53.334;-6.536;2024-03-23T07:27:38;100649.84;;;10.07;100.00
64354;BME280;50681;53.334;-6.536;2024-03-23T07:30:05;100648.25;;;9.66;100.00
64354;BME280;50681;53.334;-6.536;2024-03-23T07:32:30;100644.72;;;9.71;100.00
64354;BME280;50681;53.334;-6.536;2024-03-23T07:34:55;100647.53;;;9.55;100.00
64354;BME280;50681;53.334;-6.536;2024-03-23T07:37:21;100658.41;;;9.80;100.00
64354;BME280;50681;53.334;-6.536;2024-03-23T07:39:46;100655.31;;;9.57;100.00
64354;BME280;50681;53.334;-6.536;2024-03-23T07:42:12;100663.84;;;10.09;100.00
64354;BME280;50681;53.334;-6.536;2024-03-23T07:44:37;100666.38;;;9.95;100.00
64354;BME280;50681;53.334;-6.536;2024-03-23T07:47:03;100670.81;;;10.15;100.00
64354;BME280;50681;53.334;-6.536;2024-03-23T07:49:28;100663.75;;;9.45;100.00
64354;BME280;50681;53.334;-6.536;2024-03-23T07:51:55;100668.06;;;10.21;100.00
64354;BME280;50681;53.334;-6.536;2024-03-23T07:54:20;100672.19;;;9.78;100.00
64354;BME280;50681;53.334;-6.536;2024-03-23T07:56:46;100669.13;;;10.25;100.00
64354;BME280;50681;53.334;-6.536;2024-03-23T07:59:12;100682.75;;;10.09;100.00
64354;BME280;50681;53.334;-6.536;2024-03-23T08:01:37;100670.53;;;10.17;100.00
64354;BME280;50681;53.334;-6.536;2024-03-23T08:04:03;100677.66;;;10.03;100.00
64354;BME280;50681;53.334;-6.536;2024-03-23T08:06:28;100670.16;;;9.94;100.00
64354;BME280;50681;53.334;-6.536;2024-03-23T08:08:55;100686.00;;;10.06;100.00
64354;BME280;50681;53.334;-6.536;2024-03-23T08:11:27;100682.47;;;9.71;100.00
64354;BME280;50681;53.334;-6.536;2024-03-23T08:13:54;100696.56;;;9.58;100.00
64354;BME280;50681;53.334;-6.536;2024-03-23T08:16:19;100692.09;;;10.17;100.00
64354;BME280;50681;53.334;-6.536;2024-03-23T08:18:45;100683.84;;;9.63;100.00
64354;BME280;50681;53.334;-6.536;2024-03-23T08:21:10;100682.53;;;10.00;100.00
64354;BME280;50681;53.334;-6.536;2024-03-23T08:23:36;100693.94;;;10.56;100.00
64354;BME280;50681;53.334;-6.536;2024-03-23T08:26:14;100689.84;;;10.29;100.00
64354;BME280;50681;53.334;-6.536;2024-03-23T08:28:40;100696.22;;;10.39;100.00
64354;BME280;50681;53.334;-6.536;2024-03-23T08:31:07;100694.28;;;10.50;100.00
64354;BME280;50681;53.334;-6.536;2024-03-23T08:33:33;100703.66;;;10.57;100.00
64354;BME280;50681;53.334;-6.536;2024-03-23T08:36:09;100691.03;;;10.18;100.00
64354;BME280;50681;53.334;-6.536;2024-03-23T08:38:37;100695.94;;;10.46;100.00
64354;BME280;50681;53.334;-6.536;2024-03-23T08:41:04;100691.44;;;10.30;100.00
64354;BME280;50681;53.334;-6.536;2024-03-23T08:43:31;100688.72;;;10.36;100.00
64354;BME280;50681;53.334;-6.536;2024-03-23T08:46:04;100688.53;;;10.81;100.00
64354;BME280;50681;53.334;-6.536;2024-03-23T08:48:30;100671.59;;;10.51;100.00
64354;BME280;50681;53.334;-6.536;2024-03-23T08:51:06;100674.22;;;11.05;100.00
64354;BME280;50681;53.334;-6.536;2024-03-23T08:53:32;100673.38;;;10.31;100.00
64354;BME280;50681;53.334;-6.536;2024-03-23T08:55:58;100675.41;;;10.50;100.00
64354;BME280;50681;53.334;-6.536;2024-03-23T08:58:28;100675.63;;;10.53;100.00
64354;BME280;50681;53.334;-6.536;2024-03-23T09:00:55;100675.28;;;10.60;100.00
64354;BME280;50681;53.334;-6.536;2024-03-23T09:03:24;100670.97;;;10.83;100.00
64354;BME280;50681;53.334;-6.536;2024-03-23T09:05:51;100685.19;;;10.40;100.00
64354;BME280;50681;53.334;-6.536;2024-03-23T09:08:17;100685.34;;;11.03;100.00
64354;BME280;50681;53.334;-6.536;2024-03-23T09:10:43;100680.50;;;10.51;100.00
64354;BME280;50681;53.334;-6.536;2024-03-23T09:13:08;100668.81;;;9.97;100.00
64354;BME280;50681;53.334;-6.536;2024-03-23T09:15:36;100666.66;;;10.58;100.00
64354;BME280;50681;53.334;-6.536;2024-03-23T09:18:03;100672.28;;;10.86;100.00
64354;BME280;50681;53.334;-6.536;2024-03-23T09:20:32;100680.91;;;10.64;100.00
64354;BME280;50681;53.334;-6.536;2024-03-23T09:22:57;100682.28;;;10.85;100.00
64354;BME280;50681;53.334;-6.536;2024-03-23T09:25:22;100674.22;;;11.05;100.00
64354;BME280;50681;53.334;-6.536;2024-03-23T09:27:48;100672.03;;;11.07;100.00
64354;BME280;50681;53.334;-6.536;2024-03-23T09:30:14;100674.41;;;11.13;100.00
64354;BME280;50681;53.334;-6.536;2024-03-23T09:32:42;100680.25;;;11.40;100.00
64354;BME280;50681;53.334;-6.536;2024-03-23T09:35:08;100681.88;;;11.22;100.00
64354;BME280;50681;53.334;-6.536;2024-03-23T09:37:33;100694.59;;;10.97;100.00
64354;BME280;50681;53.334;-6.536;2024-03-23T09:40:00;100682.75;;;10.68;100.00
64354;BME280;50681;53.334;-6.536;2024-03-23T09:42:26;100693.19;;;10.51;100.00
64354;BME280;50681;53.334;-6.536;2024-03-23T09:44:51;100687.13;;;9.60;100.00
64354;BME280;50681;53.334;-6.536;2024-03-23T09:47:19;100687.56;;;9.27;100.00
64354;BME280;50681;53.334;-6.536;2024-03-23T09:49:46;100707.38;;;9.52;100.00
64354;BME280;50681;53.334;-6.536;2024-03-23T09:52:11;100707.53;;;9.71;100.00
64354;BME280;50681;53.334;-6.536;2024-03-23T09:54:36;100698.03;;;9.84;100.00
64354;BME280;50681;53.334;-6.536;2024-03-23T09:57:03;100708.28;;;10.17;100.00
64354;BME280;50681;53.334;-6.536;2024-03-23T09:59:29;100702.78;;;10.62;100.00
64354;BME280;50681;53.334;-6.536;2024-03-23T10:01:54;100696.66;;;10.22;100.00
64354;BME280;50681;53.334;-6.536;2024-03-23T10:04:40;100701.59;;;10.73;100.00
64354;BME280;50681;53.334;-6.536;2024-03-23T10:07:14;100692.38;;;11.23;100.00
64354;BME280;50681;53.334;-6.536;2024-03-23T10:09:40;100683.31;;;10.36;100.00
64354;BME280;50681;53.334;-6.536;2024-03-23T10:12:13;100682.34;;;10.56;100.00
64354;BME280;50681;53.334;-6.536;2024-03-23T10:14:42;100668.34;;;10.54;100.00
64354;BME280;50681;53.334;-6.536;2024-03-23T10:17:18;100669.81;;;10.65;100.00
64354;BME280;50681;53.334;-6.536;2024-03-23T10:19:47;100670.66;;;10.85;100.00
64354;BME280;50681;53.334;-6.536;2024-03-23T10:22:17;100666.19;;;10.75;100.00
64354;BME280;50681;53.334;-6.536;2024-03-23T10:24:43;100665.34;;;10.55;100.00
64354;BME280;50681;53.334;-6.536;2024-03-23T10:27:09;100658.69;;;10.48;100.00
64354;BME280;50681;53.334;-6.536;2024-03-23T10:29:35;100689.97;;;10.97;100.00
64354;BME280;50681;53.334;-6.536;2024-03-23T10:32:13;100674.59;;;10.98;100.00
64354;BME280;50681;53.334;-6.536;2024-03-23T10:34:38;100678.38;;;11.79;100.00
64354;BME280;50681;53.334;-6.536;2024-03-23T10:37:05;100674.41;;;11.32;100.00
64354;BME280;50681;53.334;-6.536;2024-03-23T10:39:32;100680.84;;;11.75;100.00
64354;BME280;50681;53.334;-6.536;2024-03-23T10:42:00;100681.50;;;12.05;100.00
64354;BME280;50681;53.334;-6.536;2024-03-23T10:44:28;100670.69;;;12.05;100.00
64354;BME280;50681;53.334;-6.536;2024-03-23T10:46:55;100692.09;;;11.82;100.00
64354;BME280;50681;53.334;-6.536;2024-03-23T10:49:34;100681.28;;;12.34;100.00
64354;BME280;50681;53.334;-6.536;2024-03-23T10:52:02;100685.44;;;12.46;100.00
64354;BME280;50681;53.334;-6.536;2024-03-23T10:54:29;100671.63;;;11.76;100.00
64354;BME280;50681;53.334;-6.536;2024-03-23T10:57:07;100678.72;;;12.57;100.00
64354;BME280;50681;53.334;-6.536;2024-03-23T10:59:37;100674.31;;;12.14;100.00
64354;BME280;50681;53.334;-6.536;2024-03-23T11:02:04;100676.66;;;12.21;100.00
64354;BME280;50681;53.334;-6.536;2024-03-23T11:04:34;100678.53;;;11.68;100.00
64354;BME280;50681;53.334;-6.536;2024-03-23T11:07:00;100657.16;;;11.67;100.00
64354;BME280;50681;53.334;-6.536;2024-03-23T11:12:25;100675.06;;;12.34;100.00
64354;BME280;50681;53.334;-6.536;2024-03-23T11:14:56;100686.91;;;11.67;100.00
64354;BME280;50681;53.334;-6.536;2024-03-23T11:17:24;100690.78;;;11.60;100.00
64354;BME280;50681;53.334;-6.536;2024-03-23T11:22:44;100700.53;;;11.18;100.00
64354;BME280;50681;53.334;-6.536;2024-03-23T11:25:20;100707.81;;;11.23;100.00
64354;BME280;50681;53.334;-6.536;2024-03-23T11:27:46;100692.81;;;11.30;100.00
64354;BME280;50681;53.334;-6.536;2024-03-23T11:32:42;100701.38;;;10.70;100.00
64354;BME280;50681;53.334;-6.536;2024-03-23T11:35:07;100695.75;;;10.91;100.00
64354;BME280;50681;53.334;-6.536;2024-03-23T11:37:35;100693.19;;;10.99;100.00
64354;BME280;50681;53.334;-6.536;2024-03-23T11:40:16;100694.81;;;11.44;100.00
64354;BME280;50681;53.334;-6.536;2024-03-23T11:42:41;100679.41;;;11.64;100.00
64354;BME280;50681;53.334;-6.536;2024-03-23T11:45:08;100700.16;;;12.07;100.00
64354;BME280;50681;53.334;-6.536;2024-03-23T11:47:34;100683.63;;;11.70;100.00
64354;BME280;50681;53.334;-6.536;2024-03-23T11:49:59;100677.78;;;12.01;100.00
64354;BME280;50681;53.334;-6.536;2024-03-23T11:52:25;100678.63;;;12.15;100.00
64354;BME280;50681;53.334;-6.536;2024-03-23T11:54:51;100688.41;;;12.44;100.00
64354;BME280;50681;53.334;-6.536;2024-03-23T11:57:16;100694.00;;;12.81;100.00
64354;BME280;50681;53.334;-6.536;2024-03-23T11:59:43;100686.38;;;12.22;100.00
64354;BME280;50681;53.334;-6.536;2024-03-23T12:02:11;100677.53;;;12.16;100.00
64354;BME280;50681;53.334;-6.536;2024-03-23T12:04:39;100672.06;;;12.49;100.00
64354;BME280;50681;53.334;-6.536;2024-03-23T12:07:18;100654.16;;;13.32;100.00
64354;BME280;50681;53.334;-6.536;2024-03-23T12:09:45;100657.06;;;12.85;100.00
64354;BME280;50681;53.334;-6.536;2024-03-23T12:12:14;100655.06;;;12.77;100.00
64354;BME280;50681;53.334;-6.536;2024-03-23T12:14:44;100660.44;;;12.63;100.00
64354;BME280;50681;53.334;-6.536;2024-03-23T12:17:14;100654.00;;;13.15;100.00
64354;BME280;50681;53.334;-6.536;2024-03-23T12:19:41;100638.78;;;13.05;100.00
64354;BME280;50681;53.334;-6.536;2024-03-23T12:22:07;100649.22;;;12.84;100.00
64354;BME280;50681;53.334;-6.536;2024-03-23T12:24:33;100649.19;;;13.12;100.00
64354;BME280;50681;53.334;-6.536;2024-03-23T12:27:02;100656.53;;;12.97;100.00
64354;BME280;50681;53.334;-6.536;2024-03-23T12:29:34;100652.19;;;13.24;100.00
64354;BME280;50681;53.334;-6.536;2024-03-23T12:32:00;100646.34;;;13.45;100.00
64354;BME280;50681;53.334;-6.536;2024-03-23T12:34:26;100650.63;;;13.32;100.00
64354;BME280;50681;53.334;-6.536;2024-03-23T12:36:51;100626.72;;;12.97;99.85
64354;BME280;50681;53.334;-6.536;2024-03-23T12:39:17;100637.56;;;13.11;97.74
64354;BME280;50681;53.334;-6.536;2024-03-23T12:41:43;100620.09;;;13.03;95.48
64354;BME280;50681;53.334;-6.536;2024-03-23T12:44:09;100628.88;;;13.23;95.48
64354;BME280;50681;53.334;-6.536;2024-03-23T12:46:37;100613.88;;;13.03;94.53
64354;BME280;50681;53.334;-6.536;2024-03-23T12:49:04;100631.16;;;12.65;92.76
64354;BME280;50681;53.334;-6.536;2024-03-23T12:51:30;100627.44;;;12.89;92.89
64354;BME280;50681;53.334;-6.536;2024-03-23T12:53:55;100624.50;;;13.13;92.95
64354;BME280;50681;53.334;-6.536;2024-03-23T12:56:21;100626.50;;;13.07;93.10
64354;BME280;50681;53.334;-6.536;2024-03-23T12:58:46;100634.69;;;13.30;94.36
64354;BME280;50681;53.334;-6.536;2024-03-23T13:01:19;100617.09;;;12.91;93.10
64354;BME280;50681;53.334;-6.536;2024-03-23T13:03:46;100622.81;;;13.40;90.48
64354;BME280;50681;53.334;-6.536;2024-03-23T13:06:13;100626.50;;;13.58;89.34
64354;BME280;50681;53.334;-6.536;2024-03-23T13:08:38;100642.03;;;13.66;87.88
64354;BME280;50681;53.334;-6.536;2024-03-23T13:11:07;100637.00;;;14.68;88.96
64354;BME280;50681;53.334;-6.536;2024-03-23T13:13:38;100661.56;;;14.54;89.25
64354;BME280;50681;53.334;-6.536;2024-03-23T13:16:04;100655.97;;;13.74;92.57
64354;BME280;50681;53.334;-6.536;2024-03-23T13:18:31;100685.44;;;12.88;100.00
64354;BME280;50681;53.334;-6.536;2024-03-23T13:20:58;100672.38;;;11.82;100.00
64354;BME280;50681;53.334;-6.536;2024-03-23T13:23:23;100662.81;;;11.70;100.00
64354;BME280;50681;53.334;-6.536;2024-03-23T13:25:53;100672.06;;;12.35;100.00
64354;BME280;50681;53.334;-6.536;2024-03-23T13:28:22;100656.19;;;11.96;100.00
64354;BME280;50681;53.334;-6.536;2024-03-23T13:30:54;100635.41;;;11.58;100.00
64354;BME280;50681;53.334;-6.536;2024-03-23T13:33:20;100652.13;;;11.79;100.00